createdAt,value
2019-03-30T00:02:04.858Z,140.37
2019-03-30T00:04:33.309Z,145.00
2019-03-30T00:07:01.623Z,134.22
2019-03-30T00:09:30.654Z,134.77
2019-03-30T00:11:58.979Z,127.60
2019-03-30T00:14:27.389Z,128.17
2019-03-30T00:16:56.000Z,118.53
2019-03-30T00:19:34.808Z,124.60
2019-03-30T00:21:54.789Z,122.95
2019-03-30T00:24:23.256Z,111.30
2019-03-30T00:26:51.679Z,107.63
2019-03-30T00:29:20.172Z,113.77
2019-03-30T00:31:48.580Z,107.23
2019-03-30T00:34:17.043Z,113.62
2019-03-30T00:36:45.349Z,107.70
2019-03-30T00:39:13.801Z,108.40
2019-03-30T00:41:42.190Z,100.30
2019-03-30T00:44:10.687Z,101.85
2019-03-30T00:46:39.112Z,104.00
2019-03-30T00:49:07.525Z,104.03
2019-03-30T00:51:35.948Z,75.70
2019-03-30T00:54:04.468Z,70.08
2019-03-30T00:56:35.333Z,78.97
2019-03-30T00:59:04.307Z,101.20
2019-03-30T01:01:32.740Z,134.03
2019-03-30T01:04:01.306Z,112.35
2019-03-30T01:06:29.824Z,122.78
2019-03-30T01:08:58.198Z,123.07
2019-03-30T01:11:26.510Z,113.90
2019-03-30T01:13:55.857Z,109.77
2019-03-30T01:16:24.350Z,107.20
2019-03-30T01:18:53.413Z,115.20
2019-03-30T01:21:22.053Z,120.67
2019-03-30T01:23:51.145Z,127.62
2019-03-30T01:26:21.522Z,114.20
2019-03-30T01:28:49.886Z,116.08
2019-03-30T01:31:18.379Z,110.80
2019-03-30T01:33:47.277Z,114.22
2019-03-30T01:36:15.714Z,109.80
2019-03-30T01:38:44.018Z,112.03
2019-03-30T01:41:12.590Z,113.00
2019-03-30T01:43:41.098Z,108.70
2019-03-30T01:46:10.856Z,111.40
2019-03-30T01:48:39.175Z,114.53
2019-03-30T01:51:07.739Z,107.92
2019-03-30T01:53:36.208Z,111.83
2019-03-30T01:56:04.879Z,115.55
2019-03-30T01:58:44.716Z,114.95
2019-03-30T02:01:13.515Z,111.37
2019-03-30T02:03:42.512Z,119.02
2019-03-30T02:06:11.180Z,111.65
2019-03-30T02:08:39.636Z,116.23
2019-03-30T02:11:09.308Z,108.67
2019-03-30T02:13:38.372Z,105.27
2019-03-30T02:16:06.810Z,113.15
2019-03-30T02:18:35.295Z,118.40
2019-03-30T02:21:04.733Z,120.08
2019-03-30T02:23:33.238Z,106.57
2019-03-30T02:26:01.840Z,121.10
2019-03-30T02:28:30.352Z,108.57
2019-03-30T02:30:59.001Z,108.67
2019-03-30T02:33:27.330Z,109.17
2019-03-30T02:35:55.936Z,109.90
2019-03-30T02:38:24.430Z,114.12
2019-03-30T02:40:53.669Z,110.60
2019-03-30T02:43:22.096Z,115.10
2019-03-30T02:45:50.585Z,97.35
2019-03-30T02:48:18.875Z,97.57
2019-03-30T02:50:50.527Z,97.78
2019-03-30T02:53:17.828Z,94.67
2019-03-30T02:55:46.531Z,96.70
2019-03-30T02:58:14.931Z,94.28
2019-03-30T03:00:43.498Z,91.05
2019-03-30T03:03:11.948Z,88.12
2019-03-30T03:05:41.450Z,97.50
2019-03-30T03:08:09.911Z,97.75
2019-03-30T03:10:39.186Z,105.20
2019-03-30T03:13:07.612Z,95.47
2019-03-30T03:15:36.075Z,100.82
2019-03-30T03:18:04.489Z,100.75
2019-03-30T03:20:33.825Z,95.03
2019-03-30T03:23:02.335Z,96.15
2019-03-30T03:25:31.656Z,99.55
2019-03-30T03:28:00.139Z,95.35
2019-03-30T03:30:28.971Z,88.15
2019-03-30T03:32:57.450Z,87.55
2019-03-30T03:35:25.985Z,82.97
2019-03-30T03:37:54.420Z,87.02
2019-03-30T03:40:22.798Z,89.67
2019-03-30T03:42:51.257Z,89.37
2019-03-30T03:45:19.700Z,87.70
2019-03-30T03:47:48.081Z,91.22
2019-03-30T03:50:43.643Z,99.47
2019-03-30T03:53:13.332Z,92.25
2019-03-30T03:55:41.888Z,91.75
2019-03-30T03:58:11.680Z,91.85
2019-03-30T04:00:41.077Z,96.22
2019-03-30T04:03:30.894Z,95.87
2019-03-30T04:06:01.171Z,97.00
2019-03-30T04:08:31.669Z,104.65
2019-03-30T04:11:00.773Z,107.72
2019-03-30T04:13:30.121Z,104.97
2019-03-30T04:15:58.644Z,94.87
2019-03-30T04:18:27.218Z,93.62
2019-03-30T04:20:55.581Z,102.47
2019-03-30T04:23:23.965Z,102.70
2019-03-30T04:25:52.281Z,97.15
2019-03-30T04:28:20.649Z,140.70
2019-03-30T04:30:49.091Z,99.90
2019-03-30T04:33:17.574Z,99.87
2019-03-30T04:35:46.033Z,98.12
2019-03-30T04:38:14.758Z,124.42
2019-03-30T04:40:43.346Z,92.35
2019-03-30T04:43:11.801Z,93.35
2019-03-30T04:45:40.115Z,94.65
2019-03-30T04:48:09.400Z,86.30
2019-03-30T04:50:37.729Z,90.60
2019-03-30T04:53:06.129Z,90.05
2019-03-30T04:55:34.545Z,84.07
2019-03-30T04:58:02.913Z,91.67
2019-03-30T05:00:31.440Z,91.45
2019-03-30T05:03:00.620Z,102.80
2019-03-30T05:05:31.604Z,109.45
2019-03-30T05:08:00.389Z,108.00
2019-03-30T05:10:28.724Z,107.17
2019-03-30T05:12:57.257Z,111.52
2019-03-30T05:15:26.520Z,107.32
2019-03-30T05:17:55.092Z,111.80
2019-03-30T05:20:23.628Z,100.25
2019-03-30T05:22:52.078Z,96.40
2019-03-30T05:25:20.372Z,97.50
2019-03-30T05:27:48.918Z,98.42
2019-03-30T05:30:17.431Z,88.78
2019-03-30T05:32:45.889Z,98.55
2019-03-30T05:35:14.393Z,98.12
2019-03-30T05:37:42.909Z,93.97
2019-03-30T05:40:11.621Z,89.37
2019-03-30T05:42:40.365Z,96.60
2019-03-30T05:45:08.937Z,89.35
2019-03-30T05:47:37.480Z,99.65
2019-03-30T05:50:06.262Z,93.97
2019-03-30T05:52:35.786Z,96.17
2019-03-30T05:55:05.325Z,96.65
2019-03-30T05:57:33.777Z,100.50
2019-03-30T06:00:02.468Z,92.33
2019-03-30T06:02:31.540Z,104.07
2019-03-30T06:05:03.077Z,97.88
2019-03-30T06:07:30.258Z,104.38
2019-03-30T06:09:58.853Z,103.87
2019-03-30T06:12:27.475Z,96.60
2019-03-30T06:14:55.891Z,90.50
2019-03-30T06:17:24.400Z,101.80
2019-03-30T06:19:52.794Z,95.62
2019-03-30T06:22:21.729Z,96.20
2019-03-30T06:24:50.183Z,92.85
2019-03-30T06:27:18.615Z,100.53
2019-03-30T06:30:13.931Z,98.22
2019-03-30T06:32:42.499Z,95.62
2019-03-30T06:35:11.052Z,91.35
2019-03-30T06:37:39.763Z,97.47
2019-03-30T06:40:09.134Z,97.85
2019-03-30T06:42:37.570Z,103.58
2019-03-30T06:45:06.212Z,93.82
2019-03-30T06:47:34.701Z,102.35
2019-03-30T06:50:03.386Z,99.55
2019-03-30T06:52:32.528Z,97.02
2019-03-30T06:55:01.981Z,98.87
2019-03-30T06:57:30.390Z,94.83
2019-03-30T06:59:59.060Z,87.25
2019-03-30T07:02:27.863Z,93.97
2019-03-30T07:04:56.747Z,93.25
2019-03-30T07:07:25.819Z,95.87
2019-03-30T07:09:56.125Z,96.90
2019-03-30T07:12:25.319Z,90.62
2019-03-30T07:14:57.827Z,99.07
2019-03-30T07:17:26.812Z,91.78
2019-03-30T07:19:55.392Z,92.82
2019-03-30T07:22:23.713Z,95.55
2019-03-30T07:24:52.182Z,91.63
2019-03-30T07:27:20.592Z,85.92
2019-03-30T07:29:49.168Z,87.95
2019-03-30T07:32:17.582Z,84.20
2019-03-30T07:34:46.087Z,84.13
2019-03-30T07:37:14.406Z,85.10
2019-03-30T07:39:42.763Z,87.40
2019-03-30T07:42:11.305Z,88.12
2019-03-30T07:44:40.299Z,82.08
2019-03-30T07:47:08.650Z,81.40
2019-03-30T07:49:37.040Z,79.22
2019-03-30T07:52:05.466Z,77.05
2019-03-30T07:54:33.869Z,73.33
2019-03-30T07:57:06.298Z,67.58
2019-03-30T07:59:32.658Z,75.23
2019-03-30T08:02:01.141Z,71.40
2019-03-30T08:04:29.438Z,68.72
2019-03-30T08:06:57.782Z,67.07
2019-03-30T08:09:26.237Z,64.47
2019-03-30T08:11:54.711Z,70.43
2019-03-30T08:14:23.101Z,62.50
2019-03-30T08:16:51.607Z,66.53
2019-03-30T08:19:21.799Z,62.90
2019-03-30T08:21:50.312Z,60.70
2019-03-30T08:24:19.432Z,60.63
2019-03-30T08:26:47.889Z,66.40
2019-03-30T08:29:16.198Z,63.10
2019-03-30T08:31:44.691Z,62.57
2019-03-30T08:34:13.803Z,54.07
2019-03-30T08:36:42.463Z,57.97
2019-03-30T08:39:10.848Z,59.47
2019-03-30T08:41:39.840Z,52.80
2019-03-30T08:44:10.716Z,50.70
2019-03-30T08:46:39.286Z,54.40
2019-03-30T08:49:07.627Z,50.13
2019-03-30T08:51:35.982Z,48.40
2019-03-30T08:54:04.400Z,53.77
2019-03-30T08:56:32.964Z,53.00
2019-03-30T08:59:01.383Z,52.53
2019-03-30T09:01:30.968Z,46.03
2019-03-30T09:03:59.357Z,41.93
2019-03-30T09:06:27.870Z,40.60
2019-03-30T09:08:56.290Z,40.40
2019-03-30T09:11:24.766Z,42.70
2019-03-30T09:13:53.096Z,46.70
2019-03-30T09:16:21.537Z,41.83
2019-03-30T09:18:51.073Z,39.80
2019-03-30T09:21:19.529Z,38.97
2019-03-30T09:23:48.002Z,35.90
2019-03-30T09:26:16.883Z,32.43
2019-03-30T09:28:45.510Z,28.63
2019-03-30T09:31:13.904Z,29.97
2019-03-30T09:33:42.330Z,25.57
2019-03-30T09:36:10.937Z,22.73
2019-03-30T09:38:39.216Z,20.83
2019-03-30T09:41:07.500Z,23.63
2019-03-30T09:43:37.492Z,26.03
2019-03-30T09:46:07.564Z,27.60
2019-03-30T09:48:36.942Z,29.80
2019-03-30T09:51:05.921Z,29.13
2019-03-30T09:53:34.587Z,22.40
2019-03-30T09:56:03.099Z,22.83
2019-03-30T09:58:31.680Z,26.07
2019-03-30T10:01:00.814Z,26.50
2019-03-30T10:03:29.295Z,28.47
2019-03-30T10:05:57.791Z,25.00
2019-03-30T10:08:26.337Z,35.07
2019-03-30T10:10:55.062Z,34.43
2019-03-30T10:13:24.229Z,30.13
2019-03-30T10:15:52.711Z,27.67
2019-03-30T10:18:21.182Z,31.73
2019-03-30T10:20:49.537Z,22.70
2019-03-30T10:23:18.023Z,27.20
2019-03-30T10:25:46.332Z,26.73
2019-03-30T10:28:14.920Z,23.73
2019-03-30T10:30:43.457Z,19.77
2019-03-30T10:33:11.854Z,20.70
2019-03-30T10:35:40.283Z,15.00
2019-03-30T10:38:08.651Z,19.77
2019-03-30T10:40:36.930Z,18.53
2019-03-30T10:43:05.501Z,17.23
2019-03-30T10:45:33.906Z,18.27
2019-03-30T10:48:02.440Z,21.17
2019-03-30T10:50:30.784Z,21.50
2019-03-30T10:52:59.205Z,18.60
2019-03-30T10:55:28.114Z,17.80
2019-03-30T10:57:58.597Z,16.20
2019-03-30T11:00:52.077Z,26.93
2019-03-30T11:03:20.448Z,20.57
2019-03-30T11:05:49.015Z,19.33
2019-03-30T11:08:17.512Z,20.37
2019-03-30T11:10:45.968Z,18.90
2019-03-30T11:13:15.007Z,22.37
2019-03-30T11:15:43.481Z,18.23
2019-03-30T11:18:12.068Z,21.40
2019-03-30T11:20:40.587Z,22.10
2019-03-30T11:23:09.022Z,19.80
2019-03-30T11:25:37.827Z,17.50
2019-03-30T11:28:06.455Z,19.40
2019-03-30T11:30:35.171Z,18.00
2019-03-30T11:33:03.653Z,22.80
2019-03-30T11:35:32.048Z,20.17
2019-03-30T11:38:00.565Z,22.63
2019-03-30T11:40:29.057Z,20.50
2019-03-30T11:42:57.442Z,19.40
2019-03-30T11:45:25.973Z,22.60
2019-03-30T11:47:54.978Z,23.40
2019-03-30T11:50:23.361Z,20.03
2019-03-30T11:52:52.667Z,21.17
2019-03-30T11:55:22.547Z,23.07
2019-03-30T11:57:51.123Z,24.90
2019-03-30T12:00:19.773Z,22.20
2019-03-30T12:02:48.189Z,19.67
2019-03-30T12:05:16.665Z,22.20
2019-03-30T12:07:46.429Z,22.10
2019-03-30T12:10:15.009Z,24.20
2019-03-30T12:12:43.412Z,21.83
2019-03-30T12:15:12.205Z,15.80
2019-03-30T12:17:41.246Z,16.67
2019-03-30T12:20:10.196Z,20.53
2019-03-30T12:22:38.932Z,26.43
2019-03-30T12:25:08.274Z,25.17
2019-03-30T12:27:36.546Z,23.33
2019-03-30T12:30:05.321Z,23.63
2019-03-30T12:32:33.745Z,19.33
2019-03-30T12:35:03.002Z,20.57
2019-03-30T12:37:31.299Z,23.20
2019-03-30T12:39:59.769Z,20.57
2019-03-30T12:42:28.215Z,25.57
2019-03-30T12:44:56.517Z,22.60
2019-03-30T12:47:24.950Z,20.30
2019-03-30T12:49:53.275Z,18.37
2019-03-30T12:52:22.279Z,17.87
2019-03-30T12:54:50.567Z,16.87
2019-03-30T12:57:18.999Z,22.73
2019-03-30T12:59:48.000Z,22.23
2019-03-30T13:02:16.370Z,19.73
2019-03-30T13:04:44.741Z,18.23
2019-03-30T13:07:13.281Z,15.37
2019-03-30T13:09:41.689Z,17.00
2019-03-30T13:12:10.124Z,22.67
2019-03-30T13:14:38.576Z,40.27
2019-03-30T13:17:07.047Z,20.67
2019-03-30T13:19:38.453Z,18.67
2019-03-30T13:22:06.865Z,16.00
2019-03-30T13:24:35.247Z,16.67
2019-03-30T13:27:04.387Z,15.10
2019-03-30T13:29:35.649Z,20.00
2019-03-30T13:32:04.076Z,14.77
2019-03-30T13:34:32.357Z,17.80
2019-03-30T13:37:09.343Z,16.77
2019-03-30T13:39:37.758Z,14.87
2019-03-30T13:42:06.099Z,15.07
2019-03-30T13:44:34.400Z,13.73
2019-03-30T13:47:02.886Z,16.40
2019-03-30T13:49:31.163Z,14.00
2019-03-30T13:52:00.099Z,16.83
2019-03-30T13:54:28.485Z,16.57
2019-03-30T13:56:56.799Z,14.93
2019-03-30T13:59:25.056Z,16.53
2019-03-30T14:01:53.649Z,14.90
2019-03-30T14:04:22.106Z,15.07
2019-03-30T14:06:50.442Z,16.27
2019-03-30T14:09:18.789Z,18.50
2019-03-30T14:11:47.174Z,16.20
2019-03-30T14:14:15.513Z,15.77
2019-03-30T14:16:44.593Z,12.50
2019-03-30T14:19:12.947Z,15.10
2019-03-30T14:21:41.337Z,15.50
2019-03-30T14:24:09.694Z,15.83
2019-03-30T14:26:38.090Z,15.90
2019-03-30T14:29:06.430Z,14.97
2019-03-30T14:31:34.694Z,14.17
2019-03-30T14:34:04.046Z,16.07
2019-03-30T14:36:32.330Z,18.50
2019-03-30T14:39:00.672Z,14.57
2019-03-30T14:41:28.962Z,12.37
2019-03-30T14:43:57.273Z,17.17
2019-03-30T14:46:25.786Z,14.27
2019-03-30T14:48:54.948Z,14.43
2019-03-30T14:51:23.214Z,18.37
2019-03-30T14:53:51.657Z,14.27
2019-03-30T14:56:20.030Z,14.53
2019-03-30T14:58:48.334Z,11.67
2019-03-30T15:01:16.695Z,15.90
2019-03-30T15:03:45.110Z,15.17
2019-03-30T15:06:14.111Z,15.97
2019-03-30T15:08:43.224Z,11.37
2019-03-30T15:11:11.984Z,17.03
2019-03-30T15:13:40.409Z,14.30
2019-03-30T15:16:08.814Z,15.03
2019-03-30T15:18:37.133Z,15.20
2019-03-30T15:21:08.537Z,17.30
2019-03-30T15:23:36.589Z,14.80
2019-03-30T15:26:04.964Z,18.33
2019-03-30T15:28:33.362Z,26.10
2019-03-30T15:31:01.622Z,12.40
2019-03-30T15:33:30.165Z,16.10
2019-03-30T15:35:58.412Z,20.50
2019-03-30T15:38:27.027Z,20.73
2019-03-30T15:40:55.912Z,35.53
2019-03-30T15:43:37.479Z,32.97
2019-03-30T15:45:55.768Z,16.50
2019-03-30T15:48:24.097Z,18.43
2019-03-30T15:50:52.590Z,18.60
2019-03-30T15:53:20.859Z,16.37
2019-03-30T15:55:49.381Z,18.43
2019-03-30T15:58:17.779Z,16.97
2019-03-30T16:00:46.309Z,18.00
2019-03-30T16:03:14.803Z,18.37
2019-03-30T16:05:43.234Z,17.13
2019-03-30T16:08:11.868Z,19.07
2019-03-30T16:10:40.312Z,16.70
2019-03-30T16:13:08.710Z,15.50
2019-03-30T16:15:37.081Z,17.43
2019-03-30T16:18:05.619Z,18.83
2019-03-30T16:20:33.985Z,23.97
2019-03-30T16:23:02.881Z,17.63
2019-03-30T16:25:31.441Z,20.90
2019-03-30T16:28:00.237Z,16.70
2019-03-30T16:30:28.675Z,26.63
2019-03-30T16:32:57.167Z,28.73
2019-03-30T16:35:25.693Z,38.27
2019-03-30T16:37:53.978Z,37.47
2019-03-30T16:40:22.404Z,35.67
2019-03-30T16:42:50.720Z,43.70
2019-03-30T16:45:19.065Z,51.67
2019-03-30T16:47:47.463Z,65.03
2019-03-30T16:50:16.066Z,52.13
2019-03-30T16:52:44.360Z,43.70
2019-03-30T16:55:12.866Z,38.10
2019-03-30T16:57:43.885Z,40.07
2019-03-30T17:00:12.102Z,36.97
2019-03-30T17:02:40.575Z,35.70
2019-03-30T17:05:09.925Z,32.03
2019-03-30T17:07:38.341Z,34.80
2019-03-30T17:10:07.529Z,32.63
2019-03-30T17:12:35.787Z,31.60
2019-03-30T17:15:04.523Z,34.10
2019-03-30T17:17:34.029Z,42.07
2019-03-30T17:20:02.894Z,56.20
2019-03-30T17:22:32.505Z,61.73
2019-03-30T17:25:01.150Z,54.97
2019-03-30T17:27:29.524Z,51.33
2019-03-30T17:29:57.852Z,50.97
2019-03-30T17:32:26.281Z,60.40
2019-03-30T17:34:54.796Z,68.30
2019-03-30T17:37:23.301Z,74.63
2019-03-30T17:39:51.716Z,93.10
2019-03-30T17:42:20.233Z,84.77
2019-03-30T17:44:48.649Z,75.07
2019-03-30T17:47:17.137Z,62.53
2019-03-30T17:49:46.478Z,112.73
2019-03-30T17:52:14.833Z,86.90
2019-03-30T17:54:43.139Z,80.40
2019-03-30T17:57:11.617Z,74.30
2019-03-30T17:59:40.141Z,80.50
2019-03-30T18:02:08.879Z,52.53
2019-03-30T18:04:39.032Z,56.17
2019-03-30T18:07:07.699Z,46.97
2019-03-30T18:09:36.237Z,50.90
2019-03-30T18:12:04.668Z,31.23
2019-03-30T18:14:32.955Z,37.93
2019-03-30T18:17:01.384Z,33.33
2019-03-30T18:19:29.781Z,33.50
2019-03-30T18:21:58.525Z,31.93
2019-03-30T18:24:27.048Z,35.13
2019-03-30T18:26:55.405Z,31.30
2019-03-30T18:29:24.079Z,32.43
2019-03-30T18:31:52.658Z,32.23
2019-03-30T18:34:27.467Z,29.40
2019-03-30T18:36:56.169Z,40.63
2019-03-30T18:39:24.693Z,31.73
2019-03-30T18:41:53.153Z,38.37
2019-03-30T18:44:21.684Z,52.47
2019-03-30T18:46:50.226Z,38.80
2019-03-30T18:49:19.238Z,34.67
2019-03-30T18:51:48.851Z,36.77
2019-03-30T18:54:17.771Z,35.77
2019-03-30T18:56:46.962Z,34.83
2019-03-30T18:59:15.420Z,35.30
2019-03-30T19:01:43.726Z,36.67
2019-03-30T19:04:12.613Z,35.57
2019-03-30T19:06:40.932Z,40.07
2019-03-30T19:09:09.804Z,43.33
2019-03-30T19:11:38.157Z,50.10
2019-03-30T19:14:06.637Z,55.60
2019-03-30T19:16:35.137Z,49.17
2019-03-30T19:19:04.585Z,53.07
2019-03-30T19:21:32.922Z,57.83
2019-03-30T19:24:01.425Z,51.10
2019-03-30T19:26:29.755Z,76.17
2019-03-30T19:28:58.191Z,63.77
2019-03-30T19:31:27.032Z,63.53
2019-03-30T19:33:56.223Z,62.43
2019-03-30T19:36:32.437Z,96.80
2019-03-30T19:39:01.371Z,127.50
2019-03-30T19:41:29.715Z,164.40
2019-03-30T19:43:58.080Z,187.10
2019-03-30T19:46:26.911Z,166.77
2019-03-30T19:48:55.512Z,151.10
2019-03-30T19:51:23.904Z,113.20
2019-03-30T19:53:52.521Z,109.53
2019-03-30T19:56:21.454Z,114.83
2019-03-30T19:58:50.063Z,109.73
2019-03-30T20:01:18.563Z,110.40
2019-03-30T20:03:47.074Z,101.90
2019-03-30T20:06:15.580Z,87.17
2019-03-30T20:08:44.152Z,93.40
2019-03-30T20:11:12.654Z,110.30
2019-03-30T20:13:41.029Z,64.50
2019-03-30T20:16:09.510Z,46.57
2019-03-30T20:18:38.002Z,42.20
2019-03-30T20:21:06.545Z,38.90
2019-03-30T20:23:34.942Z,39.53
2019-03-30T20:26:03.430Z,34.93
2019-03-30T20:28:31.886Z,33.40
2019-03-30T20:31:00.330Z,31.30
2019-03-30T20:33:29.452Z,34.87
2019-03-30T20:35:57.826Z,33.37
2019-03-30T20:38:28.869Z,31.03
2019-03-30T20:40:57.486Z,41.40
2019-03-30T20:43:25.899Z,35.17
2019-03-30T20:45:54.294Z,41.03
2019-03-30T20:48:22.611Z,43.57
2019-03-30T20:50:50.966Z,44.20
2019-03-30T20:53:19.292Z,42.40
2019-03-30T20:55:47.730Z,46.00
2019-03-30T20:58:16.156Z,49.67
2019-03-30T21:00:44.622Z,50.23
2019-03-30T21:03:12.966Z,50.73
2019-03-30T21:05:41.548Z,50.10
2019-03-30T21:08:09.859Z,51.97
2019-03-30T21:10:38.237Z,51.97
2019-03-30T21:13:06.557Z,52.83
2019-03-30T21:15:34.994Z,53.90
2019-03-30T21:18:03.508Z,59.23
2019-03-30T21:20:32.060Z,55.30
2019-03-30T21:23:01.015Z,58.30
2019-03-30T21:25:29.399Z,54.87
2019-03-30T21:27:57.856Z,53.97
2019-03-30T21:30:26.899Z,60.03
2019-03-30T21:32:55.348Z,53.43
2019-03-30T21:35:24.761Z,53.10
2019-03-30T21:37:53.171Z,55.93
2019-03-30T21:40:21.714Z,52.20
2019-03-30T21:42:50.047Z,54.13
2019-03-30T21:45:18.615Z,55.77
2019-03-30T21:47:46.943Z,49.43
2019-03-30T21:50:15.538Z,55.47
2019-03-30T21:52:44.041Z,53.33
2019-03-30T21:55:12.568Z,47.33
2019-03-30T21:57:41.031Z,50.37
2019-03-30T22:00:11.014Z,51.73
2019-03-30T22:02:39.974Z,57.47
2019-03-30T22:05:08.758Z,56.60
2019-03-30T22:07:37.527Z,57.80
2019-03-30T22:10:07.451Z,55.77
2019-03-30T22:12:42.160Z,60.37
2019-03-30T22:15:12.534Z,55.77
2019-03-30T22:17:40.999Z,61.10
2019-03-30T22:20:09.413Z,58.87
2019-03-30T22:22:37.924Z,58.70
2019-03-30T22:25:06.484Z,59.97
2019-03-30T22:27:34.937Z,62.20
2019-03-30T22:30:03.498Z,58.83
2019-03-30T22:32:32.023Z,55.10
2019-03-30T22:35:00.584Z,47.37
2019-03-30T22:37:28.993Z,51.57
2019-03-30T22:39:57.304Z,51.37
2019-03-30T22:42:25.789Z,49.23
2019-03-30T22:44:54.107Z,52.63
2019-03-30T22:47:22.578Z,46.93
2019-03-30T22:49:51.064Z,50.80
2019-03-30T22:52:20.480Z,50.90
2019-03-30T22:54:49.627Z,50.93
2019-03-30T22:57:18.137Z,46.40
2019-03-30T22:59:46.567Z,47.23
2019-03-30T23:02:15.097Z,51.13
2019-03-30T23:04:43.343Z,51.00
2019-03-30T23:07:11.618Z,51.40
2019-03-30T23:09:39.994Z,50.23
2019-03-30T23:12:08.341Z,51.00
2019-03-30T23:14:38.780Z,47.80
2019-03-30T23:17:07.375Z,54.33
2019-03-30T23:19:35.744Z,48.17
2019-03-30T23:22:04.956Z,51.50
2019-03-30T23:24:33.210Z,50.47
2019-03-30T23:27:01.502Z,50.03
2019-03-30T23:29:29.822Z,52.93
2019-03-30T23:31:58.038Z,49.60
2019-03-30T23:34:26.360Z,51.60
2019-03-30T23:36:54.625Z,44.90
2019-03-30T23:39:23.119Z,54.17
2019-03-30T23:41:51.444Z,48.53
2019-03-30T23:44:20.481Z,54.53
2019-03-30T23:46:48.754Z,53.60
2019-03-30T23:49:18.235Z,57.70
2019-03-30T23:51:49.617Z,51.47
2019-03-30T23:54:18.142Z,45.77
2019-03-30T23:56:46.413Z,50.37
2019-03-30T23:59:15.157Z,40.00
